Shideler, Indiana
Current Conditions -  °F | °C
As of 8:53 PM on Saturday 25 Oct 2014 (Local Time) from KMIE Reporting Station
Clear Clear  
Wind Chill: 62°   Ceiling: Unl
Heat Index: 62°   Visibility: 10mi
Dew Point: 48°   Wind: 8mph
Humidity: 60%   Direction: 260°W
Pressure: 29.9"   Gusts: NA
Location:  40.3453°N, 85.3353°W
Report Text: KMIE 260053Z 26007KT 10SM CLR 17/09 A2990 RMK AO2 SLP119 T01670089
Loading
Personal Weather Stations






























Interactive Weather Map New forecast layout! Learn more

10-Day Weather Forecast

Advertisements
Track Severe Weather on mobile